地図

経路データ

SID SEASON NUMBER BASIN SUBBASIN NAME ISO_TIME NATURE LAT LON WMO_WIND WMO_PRES WMO_AGENCY TRACK_TYPE DIST2LAND LANDFALL IFLAG USA_AGENCY USA_ATCF_ID USA_LAT USA_LON USA_RECORD USA_STATUS USA_WIND USA_PRES USA_SSHS USA_R34_NE USA_R34_SE USA_R34_SW USA_R34_NW USA_R50_NE USA_R50_SE USA_R50_SW USA_R50_NW USA_R64_NE USA_R64_SE USA_R64_SW USA_R64_NW USA_POCI USA_ROCI USA_RMW USA_EYE TOKYO_LAT TOKYO_LON TOKYO_GRADE TOKYO_WIND TOKYO_PRES TOKYO_R50_DIR TOKYO_R50_LONG TOKYO_R50_SHORT TOKYO_R30_DIR TOKYO_R30_LONG TOKYO_R30_SHORT TOKYO_LAND CMA_LAT CMA_LON CMA_CAT CMA_WIND CMA_PRES HKO_LAT HKO_LON HKO_CAT HKO_WIND HKO_PRES NEWDELHI_LAT NEWDELHI_LON NEWDELHI_GRADE NEWDELHI_WIND NEWDELHI_PRES NEWDELHI_CI NEWDELHI_DP NEWDELHI_POCI REUNION_LAT REUNION_LON REUNION_TYPE REUNION_WIND REUNION_PRES REUNION_TNUM REUNION_CI REUNION_RMW REUNION_R34_NE REUNION_R34_SE REUNION_R34_SW REUNION_R34_NW REUNION_R50_NE REUNION_R50_SE REUNION_R50_SW REUNION_R50_NW REUNION_R64_NE REUNION_R64_SE REUNION_R64_SW REUNION_R64_NW BOM_LAT BOM_LON BOM_TYPE BOM_WIND BOM_PRES BOM_TNUM BOM_CI BOM_RMW BOM_R34_NE BOM_R34_SE BOM_R34_SW BOM_R34_NW BOM_R50_NE BOM_R50_SE BOM_R50_SW BOM_R50_NW BOM_R64_NE BOM_R64_SE BOM_R64_SW BOM_R64_NW BOM_ROCI BOM_POCI BOM_EYE BOM_POS_METHOD BOM_PRES_METHOD NADI_LAT NADI_LON NADI_CAT NADI_WIND NADI_PRES WELLINGTON_LAT WELLINGTON_LON WELLINGTON_WIND WELLINGTON_PRES DS824_LAT DS824_LON DS824_STAGE DS824_WIND DS824_PRES TD9636_LAT TD9636_LON TD9636_STAGE TD9636_WIND TD9636_PRES TD9635_LAT TD9635_LON TD9635_WIND TD9635_PRES TD9635_ROCI NEUMANN_LAT NEUMANN_LON NEUMANN_CLASS NEUMANN_WIND NEUMANN_PRES MLC_LAT MLC_LON MLC_CLASS MLC_WIND MLC_PRES USA_GUST BOM_GUST BOM_GUST_PER REUNION_GUST REUNION_GUST_PER USA_SEAHGT USA_SEARAD_NE USA_SEARAD_SE USA_SEARAD_SW USA_SEARAD_NW STORM_SPEED STORM_DIR
2023110N05158 2023 15 WP MM SANVU 2023-04-19 12:00:00 NR 4.80000 158.400 PROVISIONAL 1153 1146 O_____________ tcvitals WP012023 4.80000 158.400 25 1005 -1 1008 150 30 8 310
2023110N05158 2023 15 WP MM SANVU 2023-04-19 15:00:00 NR 5.06508 158.082 PROVISIONAL 1160 1153 P_____________ WP012023 5.06508 158.082 27 1002 -1 1008 145 30 10 323
2023110N05158 2023 15 WP MM SANVU 2023-04-19 18:00:00 NR 5.60000 157.800 PROVISIONAL 1187 1187 O_____________ tcvitals WP012023 5.60000 157.800 29 1000 -1 1008 140 30 16 341
2023110N05158 2023 15 WP MM SANVU 2023-04-19 21:00:00 NR 6.55501 157.578 PROVISIONAL 1271 1271 P_____________ WP012023 6.55501 157.578 29 1001 -1 1007 140 30 21 349
2023110N05158 2023 15 WP MM SANVU 2023-04-20 00:00:00 NR 7.60000 157.400 PROVISIONAL 1356 1356 O_____________ tcvitals WP012023 7.60000 157.400 29 1003 -1 1007 140 30 19 351
2023110N05158 2023 15 WP MM SANVU 2023-04-20 03:00:00 NR 8.39738 157.265 PROVISIONAL 1430 1430 P_____________ WP012023 8.39738 157.265 32 1003 -1 1007 140 30 14 348
2023110N05158 2023 15 WP MM SANVU 2023-04-20 06:00:00 NR 9.00000 157.100 PROVISIONAL 1480 1480 O_____________ tcvitals WP012023 9.00000 157.100 35 1003 0 50 50 25 6 1007 140 30 12 336
2023110N05158 2023 15 WP MM SANVU 2023-04-20 09:00:00 NR 9.44756 156.793 PROVISIONAL 1505 1505 P_____________ WP012023 9.44756 156.793 37 1002 0 40 35 25 20 1007 112 22 9 320
2023110N05158 2023 15 WP MM SANVU 2023-04-20 12:00:00 NR 9.70000 156.500 PROVISIONAL 1521 1517 O_____________ tcvitals WP012023 9.70000 156.500 39 1002 0 30 20 25 35 1007 85 14 5 309
2023110N05158 2023 15 WP MM SANVU 2023-04-20 15:00:00 NR 9.78745 156.362 PROVISIONAL 1527 1523 P_____________ WP012023 9.78745 156.362 42 1001 0 32 22 27 37 1006 150 14 2 297
2023110N05158 2023 15 WP MM SANVU 2023-04-20 18:00:00 NR 9.80000 156.300 PROVISIONAL 1523 1523 O_____________ tcvitals WP012023 9.80000 156.300 45 1000 0 35 25 30 40 1006 216 14 2 312
2023110N05158 2023 15 WP MM SANVU 2023-04-20 21:00:00 NR 9.90000 156.235 PROVISIONAL 1529 1529 P_____________ WP012023 9.90000 156.235 45 999 0 42 30 32 40 1007 153 17 2 333
2023110N05158 2023 15 WP MM SANVU 2023-04-21 00:00:00 NR 10.0000 156.200 PROVISIONAL 1539 1539 O_____________ tcvitals WP012023 10.0000 156.200 45 999 0 50 35 35 40 1008 90 20 1 344
2023110N05158 2023 15 WP MM SANVU 2023-04-21 03:00:00 NR 10.0425 156.200 PROVISIONAL 1539 1539 P_____________ WP012023 10.0425 156.200 45 1000 0 55 40 35 45 1008 90 20 1 0
2023110N05158 2023 15 WP MM SANVU 2023-04-21 06:00:00 NR 10.1000 156.200 PROVISIONAL 1549 1549 O_____________ tcvitals WP012023 10.1000 156.200 45 1001 0 60 45 35 50 1008 90 20 2 6
2023110N05158 2023 15 WP MM SANVU 2023-04-21 09:00:00 NR 10.2649 156.210 PROVISIONAL 1570 1570 P_____________ WP012023 10.2649 156.210 45 1000 0 50 42 35 45 1008 90 20 3 343
2023110N05158 2023 15 WP MM SANVU 2023-04-21 12:00:00 NR 10.4000 156.100 PROVISIONAL 1576 1565 O_____________ tcvitals WP012023 10.4000 156.100 45 999 0 40 40 35 40 1009 90 20 4 286
2023110N05158 2023 15 WP MM SANVU 2023-04-21 15:00:00 NR 10.3874 155.790 PROVISIONAL 1565 1536 P_____________ WP012023 10.3874 155.790 42 1000 0 42 47 40 37 1009 90 20 8 263
2023110N05158 2023 15 WP MM SANVU 2023-04-21 18:00:00 NR 10.3000 155.300 PROVISIONAL 1536 1505 O_____________ tcvitals WP012023 10.3000 155.300 39 1002 0 45 55 45 35 1009 90 20 11 259
2023110N05158 2023 15 WP MM SANVU 2023-04-21 21:00:00 NR 10.1703 154.650 PROVISIONAL 1502 1474 P_____________ WP012023 10.1703 154.650 32 1003 -1 1008 90 32 13 261
2023110N05158 2023 15 WP MM SANVU 2023-04-22 00:00:00 NR 10.1000 154.000 PROVISIONAL 1474 1467 O_____________ tcvitals WP012023 10.1000 154.000 25 1004 -1 1008 90 45 11 271
2023110N05158 2023 15 WP MM SANVU 2023-04-22 03:00:00 NR 10.1973 153.538 PROVISIONAL 1473 1471 P_____________ WP012023 10.1973 153.538 22 1004 -1 1008 85 47 8 291
2023110N05158 2023 15 WP MM SANVU 2023-04-22 06:00:00 NR 10.4000 153.200 PROVISIONAL 1489 O_____________ tcvitals WP012023 10.4000 153.200 19 1005 -1 1008 80 50 8 302

デジタル台風データ・検索

IBTrACS Databaseについて

本データベースは、米国NOAAが公開する1842年以降の世界の熱帯低気圧のベストトラックデータアーカイブInternational Best Track Archive for Climate Stewardship (IBTrACS)を、ウェブで閲覧しやすい形式に変換したものです。

Data provided by NOAA IBTrACS (International Best Track Archive for Climate Stewardship), accessed on 2023-06-05